sensor_id;sensor_type;location;lat;lon;timestamp;P1;durP1;ratioP1;P2;durP2;ratioP2
61739;SDS011;47645;45.288;12.038;2022-08-20T00:00:10;8.0;;;3.1;;
61739;SDS011;47645;45.288;12.038;2022-08-20T00:10:08;8.0;;;2.9;;
61739;SDS011;47645;45.288;12.038;2022-08-20T00:20:11;2.2;;;1.2;;
61739;SDS011;47645;45.288;12.038;2022-08-20T00:30:11;4.9;;;2.8;;
61739;SDS011;47645;45.288;12.038;2022-08-20T00:40:14;6.5;;;2.6;;
61739;SDS011;47645;45.288;12.038;2022-08-20T00:50:16;6.0;;;2.6;;
61739;SDS011;47645;45.288;12.038;2022-08-20T01:00:17;5.7;;;2.8;;
61739;SDS011;47645;45.288;12.038;2022-08-20T01:10:17;5.5;;;2.9;;
61739;SDS011;47645;45.288;12.038;2022-08-20T01:20:18;4.1;;;2.5;;
61739;SDS011;47645;45.288;12.038;2022-08-20T01:30:17;3.6;;;1.9;;
61739;SDS011;47645;45.288;12.038;2022-08-20T01:40:22;4.4;;;1.9;;
61739;SDS011;47645;45.288;12.038;2022-08-20T01:50:20;6.8;;;2.8;;
61739;SDS011;47645;45.288;12.038;2022-08-20T02:00:22;6.6;;;3.3;;
61739;SDS011;47645;45.288;12.038;2022-08-20T02:10:22;4.4;;;2.2;;
61739;SDS011;47645;45.288;12.038;2022-08-20T02:20:26;4.9;;;3.2;;
61739;SDS011;47645;45.288;12.038;2022-08-20T02:30:25;5.0;;;2.4;;
61739;SDS011;47645;45.288;12.038;2022-08-20T02:40:26;5.4;;;1.8;;
61739;SDS011;47645;45.288;12.038;2022-08-20T02:50:26;6.5;;;2.9;;
61739;SDS011;47645;45.288;12.038;2022-08-20T03:00:29;3.8;;;2.1;;
61739;SDS011;47645;45.288;12.038;2022-08-20T03:10:29;4.1;;;2.1;;
61739;SDS011;47645;45.288;12.038;2022-08-20T03:20:29;2.9;;;1.8;;
61739;SDS011;47645;45.288;12.038;2022-08-20T03:30:30;6.2;;;2.2;;
61739;SDS011;47645;45.288;12.038;2022-08-20T03:40:31;5.3;;;2.7;;
61739;SDS011;47645;45.288;12.038;2022-08-20T03:50:32;2.0;;;1.3;;
61739;SDS011;47645;45.288;12.038;2022-08-20T04:00:35;5.4;;;2.8;;
61739;SDS011;47645;45.288;12.038;2022-08-20T04:10:34;5.8;;;2.7;;
61739;SDS011;47645;45.288;12.038;2022-08-20T04:20:36;7.6;;;3.7;;
61739;SDS011;47645;45.288;12.038;2022-08-20T04:30:36;5.9;;;3.4;;
61739;SDS011;47645;45.288;12.038;2022-08-20T04:40:53;5.5;;;3.4;;
61739;SDS011;47645;45.288;12.038;2022-08-20T04:50:38;6.3;;;3.6;;
61739;SDS011;47645;45.288;12.038;2022-08-20T05:00:39;7.7;;;4.7;;
61739;SDS011;47645;45.288;12.038;2022-08-20T05:10:40;6.8;;;3.8;;
61739;SDS011;47645;45.288;12.038;2022-08-20T05:20:41;8.5;;;4.7;;
61739;SDS011;47645;45.288;12.038;2022-08-20T05:30:43;8.2;;;5.8;;
61739;SDS011;47645;45.288;12.038;2022-08-20T05:40:43;8.8;;;6.5;;
61739;SDS011;47645;45.288;12.038;2022-08-20T05:50:45;12.3;;;8.1;;
61739;SDS011;47645;45.288;12.038;2022-08-20T06:00:45;10.4;;;7.0;;
61739;SDS011;47645;45.288;12.038;2022-08-20T06:10:46;10.3;;;7.7;;
61739;SDS011;47645;45.288;12.038;2022-08-20T06:20:47;8.8;;;5.6;;
61739;SDS011;47645;45.288;12.038;2022-08-20T06:30:48;6.9;;;3.1;;
61739;SDS011;47645;45.288;12.038;2022-08-20T06:40:49;4.7;;;2.1;;
61739;SDS011;47645;45.288;12.038;2022-08-20T06:50:51;4.2;;;1.7;;
61739;SDS011;47645;45.288;12.038;2022-08-20T07:00:51;11.0;;;5.5;;
61739;SDS011;47645;45.288;12.038;2022-08-20T07:10:53;10.8;;;5.4;;
61739;SDS011;47645;45.288;12.038;2022-08-20T07:20:56;10.4;;;5.2;;
61739;SDS011;47645;45.288;12.038;2022-08-20T07:40:57;10.0;;;5.3;;
61739;SDS011;47645;45.288;12.038;2022-08-20T07:50:58;7.9;;;4.4;;
61739;SDS011;47645;45.288;12.038;2022-08-20T08:01:00;9.9;;;5.4;;
61739;SDS011;47645;45.288;12.038;2022-08-20T08:11:01;9.2;;;5.6;;
61739;SDS011;47645;45.288;12.038;2022-08-20T08:21:05;5.8;;;3.1;;
61739;SDS011;47645;45.288;12.038;2022-08-20T08:31:02;8.5;;;3.6;;
61739;SDS011;47645;45.288;12.038;2022-08-20T08:41:06;7.0;;;3.4;;
61739;SDS011;47645;45.288;12.038;2022-08-20T08:51:14;5.0;;;2.5;;
61739;SDS011;47645;45.288;12.038;2022-08-20T09:01:09;4.4;;;2.0;;
61739;SDS011;47645;45.288;12.038;2022-08-20T09:11:10;6.9;;;2.1;;
61739;SDS011;47645;45.288;12.038;2022-08-20T09:21:10;4.6;;;1.8;;
61739;SDS011;47645;45.288;12.038;2022-08-20T09:31:11;4.9;;;1.8;;
61739;SDS011;47645;45.288;12.038;2022-08-20T09:41:12;4.8;;;1.4;;
61739;SDS011;47645;45.288;12.038;2022-08-20T09:51:14;2.8;;;1.2;;
61739;SDS011;47645;45.288;12.038;2022-08-20T10:01:14;8.0;;;1.6;;
61739;SDS011;47645;45.288;12.038;2022-08-20T10:11:16;8.3;;;2.1;;
61739;SDS011;47645;45.288;12.038;2022-08-20T10:21:18;6.0;;;1.7;;
61739;SDS011;47645;45.288;12.038;2022-08-20T10:31:18;4.5;;;1.6;;
61739;SDS011;47645;45.288;12.038;2022-08-20T10:41:21;5.6;;;1.5;;
61739;SDS011;47645;45.288;12.038;2022-08-20T10:51:22;4.3;;;1.3;;
61739;SDS011;47645;45.288;12.038;2022-08-20T11:01:24;4.8;;;1.5;;
61739;SDS011;47645;45.288;12.038;2022-08-20T11:11:25;4.6;;;1.5;;
61739;SDS011;47645;45.288;12.038;2022-08-20T11:21:27;4.3;;;1.3;;
61739;SDS011;47645;45.288;12.038;2022-08-20T11:31:28;4.0;;;1.4;;
61739;SDS011;47645;45.288;12.038;2022-08-20T11:41:31;6.2;;;1.6;;
61739;SDS011;47645;45.288;12.038;2022-08-20T11:51:32;3.4;;;1.2;;
61739;SDS011;47645;45.288;12.038;2022-08-20T12:01:34;4.7;;;1.3;;
61739;SDS011;47645;45.288;12.038;2022-08-20T12:11:36;3.9;;;1.2;;
61739;SDS011;47645;45.288;12.038;2022-08-20T12:21:38;4.6;;;1.5;;
61739;SDS011;47645;45.288;12.038;2022-08-20T12:31:39;5.3;;;1.6;;
61739;SDS011;47645;45.288;12.038;2022-08-20T12:41:41;3.4;;;1.1;;
61739;SDS011;47645;45.288;12.038;2022-08-20T12:51:43;3.7;;;1.3;;
61739;SDS011;47645;45.288;12.038;2022-08-20T13:01:45;3.1;;;1.1;;
61739;SDS011;47645;45.288;12.038;2022-08-20T13:11:47;3.1;;;0.9;;
61739;SDS011;47645;45.288;12.038;2022-08-20T13:21:49;2.0;;;0.7;;
61739;SDS011;47645;45.288;12.038;2022-08-20T13:31:51;2.7;;;1.0;;
61739;SDS011;47645;45.288;12.038;2022-08-20T13:41:53;2.8;;;0.8;;
61739;SDS011;47645;45.288;12.038;2022-08-20T13:51:55;4.2;;;0.8;;
61739;SDS011;47645;45.288;12.038;2022-08-20T14:01:57;3.1;;;1.1;;
61739;SDS011;47645;45.288;12.038;2022-08-20T14:11:59;4.2;;;1.1;;
61739;SDS011;47645;45.288;12.038;2022-08-20T14:22:01;3.3;;;1.2;;
61739;SDS011;47645;45.288;12.038;2022-08-20T14:32:03;2.8;;;0.9;;
61739;SDS011;47645;45.288;12.038;2022-08-20T14:42:05;2.7;;;0.9;;
61739;SDS011;47645;45.288;12.038;2022-08-20T14:52:07;2.6;;;0.8;;
61739;SDS011;47645;45.288;12.038;2022-08-20T15:02:10;2.5;;;0.9;;
61739;SDS011;47645;45.288;12.038;2022-08-20T15:12:10;2.9;;;0.9;;
61739;SDS011;47645;45.288;12.038;2022-08-20T15:22:13;3.6;;;1.0;;
61739;SDS011;47645;45.288;12.038;2022-08-20T15:32:15;3.7;;;0.9;;
61739;SDS011;47645;45.288;12.038;2022-08-20T15:42:17;4.4;;;0.9;;
61739;SDS011;47645;45.288;12.038;2022-08-20T15:52:18;2.3;;;0.9;;
61739;SDS011;47645;45.288;12.038;2022-08-20T16:02:34;2.6;;;0.8;;
61739;SDS011;47645;45.288;12.038;2022-08-20T16:12:23;1.8;;;0.9;;
61739;SDS011;47645;45.288;12.038;2022-08-20T16:22:24;1.6;;;0.5;;
61739;SDS011;47645;45.288;12.038;2022-08-20T16:32:30;2.8;;;0.7;;
61739;SDS011;47645;45.288;12.038;2022-08-20T16:42:29;1.8;;;1.1;;
61739;SDS011;47645;45.288;12.038;2022-08-20T16:52:29;8.7;;;3.1;;
61739;SDS011;47645;45.288;12.038;2022-08-20T17:02:30;3.1;;;1.3;;
61739;SDS011;47645;45.288;12.038;2022-08-20T17:12:32;4.7;;;1.3;;
61739;SDS011;47645;45.288;12.038;2022-08-20T17:22:38;2.6;;;1.2;;
61739;SDS011;47645;45.288;12.038;2022-08-20T17:32:44;2.5;;;1.1;;
61739;SDS011;47645;45.288;12.038;2022-08-20T17:42:44;2.4;;;1.0;;
61739;SDS011;47645;45.288;12.038;2022-08-20T17:52:43;4.0;;;1.1;;
61739;SDS011;47645;45.288;12.038;2022-08-20T18:02:41;4.0;;;1.1;;
61739;SDS011;47645;45.288;12.038;2022-08-20T18:12:43;4.0;;;1.3;;
61739;SDS011;47645;45.288;12.038;2022-08-20T18:22:45;2.7;;;0.8;;
61739;SDS011;47645;45.288;12.038;2022-08-20T18:32:46;2.8;;;1.1;;
61739;SDS011;47645;45.288;12.038;2022-08-20T18:42:46;4.5;;;1.3;;
61739;SDS011;47645;45.288;12.038;2022-08-20T18:52:49;4.7;;;1.2;;
61739;SDS011;47645;45.288;12.038;2022-08-20T19:02:52;3.3;;;1.3;;
61739;SDS011;47645;45.288;12.038;2022-08-20T19:22:53;3.8;;;1.3;;
61739;SDS011;47645;45.288;12.038;2022-08-20T19:32:54;4.6;;;1.2;;
61739;SDS011;47645;45.288;12.038;2022-08-20T19:42:56;3.1;;;1.4;;
61739;SDS011;47645;45.288;12.038;2022-08-20T19:53:00;3.4;;;1.1;;
61739;SDS011;47645;45.288;12.038;2022-08-20T20:03:06;2.6;;;1.2;;
61739;SDS011;47645;45.288;12.038;2022-08-20T20:13:05;3.3;;;1.4;;
61739;SDS011;47645;45.288;12.038;2022-08-20T20:23:11;3.5;;;1.6;;
61739;SDS011;47645;45.288;12.038;2022-08-20T20:33:09;4.0;;;1.3;;
61739;SDS011;47645;45.288;12.038;2022-08-20T20:43:05;3.2;;;1.5;;
61739;SDS011;47645;45.288;12.038;2022-08-20T20:53:12;3.4;;;1.4;;
61739;SDS011;47645;45.288;12.038;2022-08-20T21:03:07;3.5;;;1.4;;
61739;SDS011;47645;45.288;12.038;2022-08-20T21:18:09;3.2;;;1.3;;
61739;SDS011;47645;45.288;12.038;2022-08-20T21:23:09;3.4;;;1.3;;
61739;SDS011;47645;45.288;12.038;2022-08-20T21:33:10;3.9;;;1.9;;
61739;SDS011;47645;45.288;12.038;2022-08-20T21:43:12;3.8;;;2.0;;
61739;SDS011;47645;45.288;12.038;2022-08-20T21:53:13;3.2;;;1.7;;
61739;SDS011;47645;45.288;12.038;2022-08-20T22:03:15;2.6;;;1.6;;
61739;SDS011;47645;45.288;12.038;2022-08-20T22:13:16;4.2;;;2.0;;
61739;SDS011;47645;45.288;12.038;2022-08-20T22:23:17;6.5;;;2.5;;
61739;SDS011;47645;45.288;12.038;2022-08-20T22:33:19;7.8;;;2.2;;
61739;SDS011;47645;45.288;12.038;2022-08-20T22:43:20;7.7;;;3.4;;
61739;SDS011;47645;45.288;12.038;2022-08-20T22:53:21;7.6;;;4.0;;
61739;SDS011;47645;45.288;12.038;2022-08-20T23:03:22;5.9;;;4.2;;
61739;SDS011;47645;45.288;12.038;2022-08-20T23:13:23;10.5;;;4.3;;
61739;SDS011;47645;45.288;12.038;2022-08-20T23:23:25;5.4;;;3.8;;
61739;SDS011;47645;45.288;12.038;2022-08-20T23:33:26;5.4;;;3.6;;
61739;SDS011;47645;45.288;12.038;2022-08-20T23:43:27;7.6;;;3.8;;
61739;SDS011;47645;45.288;12.038;2022-08-20T23:53:28;6.6;;;3.6;;
